PWSweather.com
Personal Weather Stations
Station Observations
GEELONGWX1
Bell Post Hill, GeelongAU

Bell Post HillGeelongAU

Lat: -38.101, Lon: 144.326

Elevation: 204

Station Type: Davis Vantage Pro2

http://www.geelongweather.com

Latest ConditionsUpdated 6:10:01 AM GMT+10:10 Wednesday, May 22, 2019
Currently Today's Max Today's Min Today's Average
Temperature 46.7°F8.2°C 53.7°F12.1°C 46.7°F8.2°C 50.2°F10.1°C
Dew Point 43.4°F6.3°C 49.6°F9.8°C 43.4°F6.3°C 46.3°F7.9°C
Winds 2.3 mph W3.7 kmh W 3.5 mph -5.6 kmh - - 1.8 mph 2.9 kmh
Wind Gusts 2.3 mph3.7 kmh 3.5 mph5.6 kmh - -
Humidity 88% 88% 85% 86%
Pressure 30.39 in1029.1 mb 30.39 in1029.1 mb 30.33 in1027.1 mb -
Hour Temp Dew Point Humidity Winds Wind Gusts Pressure Precip Precip Rate Daily Precip Total
06:10 AM 46.7°F8.2°C 43.4°F6.3°C 88% 2.3 mph W3.7 kmh W 2.3 mph3.7 kmh 30.39 in1029.1 mb - 0.00 in0.0 mm 0.00 in0.0 mm
06:00 AM 46.9°F8.3°C 43.5°F6.4°C 88% 2.3 mph W3.7 kmh W 2.3 mph3.7 kmh 30.39 in1029.1 mb - 0.00 in0.0 mm 0.00 in0.0 mm
05:50 AM 47.1°F8.4°C 43.4°F6.3°C 87% 1.2 mph W1.9 kmh W 2.3 mph3.7 kmh 30.38 in1028.8 mb - 0.00 in0.0 mm 0.00 in0.0 mm
05:40 AM 47.3°F8.5°C 43.6°F6.4°C 87% 1.2 mph W1.9 kmh W 2.3 mph3.7 kmh 30.38 in1028.8 mb - 0.00 in0.0 mm 0.00 in0.0 mm
05:30 AM 47.5°F8.6°C 43.8°F6.6°C 87% 2.3 mph W3.7 kmh W 3.5 mph5.6 kmh 30.38 in1028.8 mb - 0.00 in0.0 mm 0.00 in0.0 mm
05:20 AM 47.6°F8.7°C 43.9°F6.6°C 87% 2.3 mph W3.7 kmh W 2.3 mph3.7 kmh 30.38 in1028.8 mb - 0.00 in0.0 mm 0.00 in0.0 mm
05:10 AM 47.7°F8.7°C 44.0°F6.7°C 87% 2.3 mph W3.7 kmh W 3.5 mph5.6 kmh 30.37 in1028.4 mb - 0.00 in0.0 mm 0.00 in0.0 mm
05:00 AM 47.8°F8.8°C 44.1°F6.7°C 87% 3.5 mph W5.6 kmh W 3.5 mph5.6 kmh 30.37 in1028.4 mb - 0.00 in0.0 mm 0.00 in0.0 mm
04:50 AM 48.0°F8.9°C 44.3°F6.8°C 87% 1.2 mph W1.9 kmh W 3.5 mph5.6 kmh 30.37 in1028.4 mb - 0.00 in0.0 mm 0.00 in0.0 mm
04:40 AM 48.1°F8.9°C 44.4°F6.9°C 87% 1.2 mph W1.9 kmh W 2.3 mph3.7 kmh 30.37 in1028.4 mb - 0.00 in0.0 mm 0.00 in0.0 mm
04:30 AM 48.3°F9.1°C 44.3°F6.8°C 86% 2.3 mph W3.7 kmh W 2.3 mph3.7 kmh 30.37 in1028.4 mb - 0.00 in0.0 mm 0.00 in0.0 mm
04:20 AM 48.4°F9.1°C 44.4°F6.9°C 86% 3.5 mph W5.6 kmh W 3.5 mph5.6 kmh 30.36 in1028.1 mb - 0.00 in0.0 mm 0.00 in0.0 mm
04:10 AM 48.5°F9.2°C 44.5°F6.9°C 86% 2.3 mph W3.7 kmh W 3.5 mph5.6 kmh 30.36 in1028.1 mb - 0.00 in0.0 mm 0.00 in0.0 mm
04:00 AM 48.7°F9.3°C 44.7°F7.1°C 86% 2.3 mph W3.7 kmh W 3.5 mph5.6 kmh 30.36 in1028.1 mb - 0.00 in0.0 mm 0.00 in0.0 mm
03:50 AM 48.8°F9.3°C 44.8°F7.1°C 86% 1.2 mph W1.9 kmh W 2.3 mph3.7 kmh 30.36 in1028.1 mb - 0.00 in0.0 mm 0.00 in0.0 mm
03:40 AM 49.0°F9.4°C 45.0°F7.2°C 86% 2.3 mph W3.7 kmh W 3.5 mph5.6 kmh 30.36 in1028.1 mb - 0.00 in0.0 mm 0.00 in0.0 mm
03:30 AM 49.2°F9.6°C 44.9°F7.2°C 85% 2.3 mph W3.7 kmh W 3.5 mph5.6 kmh 30.36 in1028.1 mb - 0.00 in0.0 mm 0.00 in0.0 mm
03:20 AM 49.4°F9.7°C 45.1°F7.3°C 85% 2.3 mph W3.7 kmh W 3.5 mph5.6 kmh 30.36 in1028.1 mb - 0.00 in0.0 mm 0.00 in0.0 mm
03:10 AM 49.7°F9.8°C 45.4°F7.4°C 85% 2.3 mph W3.7 kmh W 2.3 mph3.7 kmh 30.36 in1028.1 mb - 0.00 in0.0 mm 0.00 in0.0 mm
03:00 AM 50.0°F10.0°C 45.6°F7.6°C 85% 1.2 mph W1.9 kmh W 2.3 mph3.7 kmh 30.35 in1027.8 mb - 0.00 in0.0 mm 0.00 in0.0 mm
02:50 AM 50.3°F10.2°C 46.0°F7.8°C 85% 1.2 mph W1.9 kmh W 2.3 mph3.7 kmh 30.35 in1027.8 mb - 0.00 in0.0 mm 0.00 in0.0 mm
02:40 AM 50.6°F10.3°C 46.3°F7.9°C 85% 2.3 mph W3.7 kmh W 2.3 mph3.7 kmh 30.35 in1027.8 mb - 0.00 in0.0 mm 0.00 in0.0 mm
02:30 AM 51.0°F10.6°C 46.6°F8.1°C 85% 2.3 mph W3.7 kmh W 3.5 mph5.6 kmh 30.35 in1027.8 mb - 0.00 in0.0 mm 0.00 in0.0 mm
02:20 AM 51.4°F10.8°C 47.0°F8.3°C 85% 1.2 mph W1.9 kmh W 2.3 mph3.7 kmh 30.34 in1027.4 mb - 0.00 in0.0 mm 0.00 in0.0 mm
02:10 AM 51.9°F11.1°C 47.8°F8.8°C 86% 1.2 mph W1.9 kmh W 3.5 mph5.6 kmh 30.34 in1027.4 mb - 0.00 in0.0 mm 0.00 in0.0 mm
02:00 AM 52.2°F11.2°C 48.1°F8.9°C 86% 1.2 mph W1.9 kmh W 2.3 mph3.7 kmh 30.34 in1027.4 mb - 0.00 in0.0 mm 0.00 in0.0 mm
01:50 AM 52.4°F11.3°C 48.4°F9.1°C 86% 1.2 mph W1.9 kmh W 2.3 mph3.7 kmh 30.34 in1027.4 mb - 0.00 in0.0 mm 0.00 in0.0 mm
01:40 AM 52.7°F11.5°C 48.9°F9.4°C 87% 2.3 mph W3.7 kmh W 3.5 mph5.6 kmh 30.34 in1027.4 mb - 0.00 in0.0 mm 0.00 in0.0 mm
01:30 AM 52.8°F11.6°C 49.0°F9.4°C 87% 1.2 mph W1.9 kmh W 3.5 mph5.6 kmh 30.33 in1027.1 mb - 0.00 in0.0 mm 0.00 in0.0 mm
01:20 AM 52.9°F11.6°C 49.1°F9.5°C 87% 2.3 mph W3.7 kmh W 3.5 mph5.6 kmh 30.33 in1027.1 mb - 0.00 in0.0 mm 0.00 in0.0 mm
01:10 AM 52.9°F11.6°C 48.8°F9.3°C 86% 1.2 mph W1.9 kmh W 2.3 mph3.7 kmh 30.34 in1027.4 mb - 0.00 in0.0 mm 0.00 in0.0 mm
01:00 AM 53.1°F11.7°C 49.0°F9.4°C 86% 1.2 mph W1.9 kmh W 2.3 mph3.7 kmh 30.34 in1027.4 mb - 0.00 in0.0 mm 0.00 in0.0 mm
12:50 AM 53.2°F11.8°C 49.1°F9.5°C 86% 1.2 mph W1.9 kmh W 3.5 mph5.6 kmh 30.34 in1027.4 mb - 0.00 in0.0 mm 0.00 in0.0 mm
12:40 AM 53.2°F11.8°C 49.1°F9.5°C 86% 1.2 mph W1.9 kmh W 3.5 mph5.6 kmh 30.34 in1027.4 mb - 0.00 in0.0 mm 0.00 in0.0 mm
12:30 AM 53.3°F11.8°C 49.2°F9.6°C 86% 2.3 mph W3.7 kmh W 3.5 mph5.6 kmh 30.33 in1027.1 mb - 0.00 in0.0 mm 0.00 in0.0 mm
12:20 AM 53.4°F11.9°C 49.3°F9.6°C 86% 1.2 mph W1.9 kmh W 2.3 mph3.7 kmh 30.33 in1027.1 mb - 0.00 in0.0 mm 0.00 in0.0 mm
12:10 AM 53.6°F12.0°C 49.5°F9.7°C 86% 1.2 mph W1.9 kmh W 3.5 mph5.6 kmh 30.33 in1027.1 mb - 0.00 in0.0 mm 0.00 in0.0 mm
12:00 AM 53.7°F12.1°C 49.6°F9.8°C 86% 1.2 mph W1.9 kmh W 2.3 mph3.7 kmh 30.33 in1027.1 mb - 0.00 in0.0 mm 0.00 in0.0 mm